TimePDT,TemperatureF,Dew PointF,Humidity,Sea Level PressureIn,VisibilityMPH,Wind Direction,Wind SpeedMPH,Gust SpeedMPH,PrecipitationIn,Events,Conditions,WindDirDegrees,DateUTC
12:00 AM,40.8,36.3,84,30.31,-9999.0,ESE,1.2,-,N/A,,Unknown,120,2012-10-05 07:00:00
1:00 AM,41.4,38.1,88,30.32,-9999.0,Calm,Calm,-,N/A,,Unknown,0,2012-10-05 08:00:00
2:00 AM,40.5,37.0,88,30.33,-9999.0,Calm,Calm,-,N/A,,Unknown,0,2012-10-05 09:00:00
3:00 AM,38.1,35.4,90,30.33,-9999.0,Calm,Calm,-,N/A,,Unknown,0,2012-10-05 10:00:00
4:00 AM,37.2,34.9,91,30.32,-9999.0,Calm,Calm,-,N/A,,Unknown,0,2012-10-05 11:00:00
5:00 AM,39.6,37.8,93,30.33,-9999.0,Calm,Calm,-,N/A,,Unknown,0,2012-10-05 12:00:00
6:00 AM,37.8,36.3,95,30.33,-9999.0,Calm,Calm,-,N/A,,Unknown,0,2012-10-05 13:00:00
7:00 AM,37.2,35.6,94,30.34,-9999.0,Calm,Calm,-,N/A,,Unknown,0,2012-10-05 14:00:00
8:00 AM,40.5,38.5,93,30.35,-9999.0,Calm,Calm,-,N/A,,Unknown,0,2012-10-05 15:00:00
9:00 AM,48.4,44.1,85,30.35,-9999.0,Calm,Calm,-,N/A,,Unknown,0,2012-10-05 16:00:00
10:00 AM,55.8,40.6,57,30.34,-9999.0,WNW,1.2,-,N/A,,Unknown,300,2012-10-05 17:00:00
11:00 AM,63,37,27,30.34,,NNE,2.3,,,,,30,2012-10-05 18:00:00
11:00 AM,63.3,37.4,38,30.34,-9999.0,NNE,2.3,-,N/A,,Unknown,30,2012-10-05 18:00:00
12:00 PM,66.4,37.2,34,30.32,-9999.0,West,5.8,-,N/A,,Unknown,260,2012-10-05 19:00:00
1:00 PM,68.5,33.6,28,30.31,-9999.0,West,9.2,-,N/A,,Unknown,260,2012-10-05 20:00:00
2:00 PM,71.1,27.3,20,30.29,-9999.0,West,5.8,-,N/A,,Unknown,260,2012-10-05 21:00:00
3:00 PM,71.4,33.4,25,30.27,-9999.0,West,8.1,-,N/A,,Unknown,270,2012-10-05 22:00:00
4:00 PM,68.4,34.0,28,30.27,-9999.0,West,8.1,-,N/A,,Unknown,270,2012-10-05 23:00:00
5:00 PM,67,34,18,30.26,,West,8.1,,,,,260,2012-10-06 00:00:00
5:00 PM,67.1,33.6,29,30.26,-9999.0,West,8.1,-,N/A,,Unknown,260,2012-10-06 00:00:00
6:00 PM,64.8,31.5,29,30.25,-9999.0,West,4.6,-,N/A,,Unknown,260,2012-10-06 01:00:00
7:00 PM,57.6,35.1,43,30.25,-9999.0,WNW,2.3,-,N/A,,Unknown,290,2012-10-06 02:00:00
8:00 PM,52.5,37.4,56,30.25,-9999.0,Calm,Calm,-,N/A,,Unknown,0,2012-10-06 03:00:00
9:00 PM,50.7,37.4,60,30.25,-9999.0,West,1.2,-,N/A,,Unknown,270,2012-10-06 04:00:00
10:00 PM,43.9,36.1,74,30.27,-9999.0,Calm,Calm,-,N/A,,Unknown,0,2012-10-06 05:00:00
11:00 PM,43,35,66,30.27,,West,1.2,,,,,270,2012-10-06 06:00:00
11:00 PM,42.8,35.4,75,30.27,-9999.0,West,1.2,-,N/A,,Unknown,270,2012-10-06 06:00:00